createdAt,value
2022-08-01T04:32:51.669Z,0
2022-08-01T04:34:00.033Z,0
2022-08-01T04:35:22.701Z,0
2022-08-01T04:36:16.991Z,4.3
2022-08-01T04:37:25.405Z,4.3
2022-08-01T04:38:33.773Z,4.3
2022-08-01T04:39:50.336Z,4.4
2022-08-01T04:40:50.723Z,4.4
2022-08-01T04:41:59.091Z,4.4
2022-08-01T04:43:07.680Z,4.1
2022-08-01T04:44:16.043Z,4.1
2022-08-01T04:45:24.412Z,4.1
2022-08-01T04:46:32.993Z,4.4
2022-08-01T04:47:41.389Z,4.4
2022-08-01T04:48:49.795Z,4.4
2022-08-01T04:49:58.340Z,5.2
2022-08-01T04:51:06.725Z,5.2
2022-08-01T04:52:18.890Z,5.2
2022-08-01T04:53:24.646Z,5.9
2022-08-01T04:54:33.228Z,5.9
2022-08-01T04:55:41.571Z,5.9
2022-08-01T04:56:51.537Z,5.3
2022-08-01T04:57:58.541Z,5.3
2022-08-01T04:59:09.401Z,5.3
2022-08-01T05:00:18.146Z,5.2
2022-08-01T05:01:27.463Z,5.2
2022-08-01T05:02:35.797Z,5.2
2022-08-01T05:03:44.371Z,5.4
2022-08-01T05:04:52.743Z,5.4
2022-08-01T05:06:01.132Z,5.4
2022-08-01T05:07:09.696Z,4
2022-08-01T05:08:18.161Z,4
2022-08-01T05:09:30.828Z,4
2022-08-01T05:10:35.339Z,3.4
2022-08-01T05:11:44.233Z,3.4
2022-08-01T05:12:52.601Z,3.4
2022-08-01T05:14:01.207Z,3.5
2022-08-01T05:15:15.075Z,3.5
2022-08-01T05:16:17.965Z,3.5
2022-08-01T05:17:26.542Z,3.2
2022-08-01T05:18:34.900Z,3.2
2022-08-01T05:19:43.291Z,3.2
2022-08-01T05:20:51.878Z,3.2
2022-08-01T05:22:00.421Z,3.2
2022-08-01T05:23:10.354Z,3.2
2022-08-01T05:24:17.201Z,2.9
2022-08-01T05:25:53.116Z,2.9
2022-08-01T05:26:33.938Z,2.9
2022-08-01T05:27:42.512Z,2.8
2022-08-01T05:28:50.870Z,2.8
2022-08-01T05:29:59.249Z,2.8
2022-08-01T05:31:07.841Z,2.7
2022-08-01T05:32:16.207Z,2.7
2022-08-01T05:33:24.607Z,2.7
2022-08-01T05:34:33.184Z,2.8
2022-08-01T05:35:47.726Z,2.8
2022-08-01T05:36:51.982Z,2.8
2022-08-01T05:37:58.501Z,2.8
2022-08-01T05:39:06.882Z,2.8
2022-08-01T05:40:15.238Z,2.8
2022-08-01T05:41:23.810Z,2.8
2022-08-01T05:42:32.196Z,2.8
2022-08-01T05:43:40.578Z,2.8
2022-08-01T05:44:49.136Z,2.8
2022-08-01T05:45:57.501Z,2.8
2022-08-01T05:47:05.871Z,2.8
2022-08-01T05:48:14.451Z,3
2022-08-01T05:49:22.841Z,3
2022-08-01T05:50:31.202Z,3
2022-08-01T05:51:39.774Z,2.9
2022-08-01T05:52:48.155Z,2.9
2022-08-01T05:53:56.522Z,2.9
2022-08-01T05:55:05.102Z,3.2
2022-08-01T05:56:13.482Z,3.2
2022-08-01T05:57:21.850Z,3.2
2022-08-01T05:58:30.445Z,2.8
2022-08-01T05:59:38.790Z,2.8
2022-08-01T06:00:47.165Z,2.8
2022-08-01T06:01:55.807Z,2.8
2022-08-01T06:03:04.146Z,2.8
2022-08-01T06:04:12.499Z,2.8
2022-08-01T06:05:21.091Z,2.8
2022-08-01T06:06:29.476Z,2.8
2022-08-01T06:07:38.558Z,2.8
2022-08-01T06:08:46.474Z,2.8
2022-08-01T06:09:54.841Z,2.8
2022-08-01T06:11:03.210Z,2.8
2022-08-01T06:12:11.782Z,3
2022-08-01T06:13:20.191Z,3
2022-08-01T06:14:28.565Z,3
2022-08-01T06:15:46.561Z,2.9
2022-08-01T06:16:59.747Z,2.9
2022-08-01T06:18:08.510Z,2.9
2022-08-01T06:19:17.731Z,3.5
2022-08-01T06:20:35.720Z,3.5
2022-08-01T06:21:41.168Z,3.5
2022-08-01T06:22:51.816Z,3.1
2022-08-01T06:23:58.113Z,3.1
2022-08-01T06:25:06.480Z,3.1
2022-08-01T06:26:15.064Z,3.4
2022-08-01T06:27:23.469Z,3.4
2022-08-01T06:28:31.846Z,3.4
2022-08-01T06:29:40.446Z,3.2
2022-08-01T06:30:48.837Z,3.2
2022-08-01T06:31:57.199Z,3.2
2022-08-01T06:33:05.868Z,2.8
2022-08-01T06:34:14.209Z,2.8
2022-08-01T06:35:22.612Z,2.8
2022-08-01T06:36:31.186Z,3.4
2022-08-01T06:37:39.590Z,3.4
2022-08-01T06:38:47.963Z,3.4
2022-08-01T06:39:56.553Z,2.8
2022-08-01T06:41:04.914Z,2.8
2022-08-01T06:42:13.287Z,2.8
2022-08-01T06:43:21.892Z,3.3
2022-08-01T06:44:30.308Z,3.3
2022-08-01T06:45:38.692Z,3.3
2022-08-01T06:46:47.273Z,3.6
2022-08-01T06:47:55.658Z,3.6
2022-08-01T06:49:04.075Z,3.6
2022-08-01T06:50:12.606Z,3.2
2022-08-01T06:51:21.021Z,3.2
2022-08-01T06:52:29.481Z,3.2
2022-08-01T06:53:38.115Z,3
2022-08-01T06:54:46.474Z,3
2022-08-01T06:55:54.855Z,3
2022-08-01T06:57:03.449Z,3
2022-08-01T06:58:11.828Z,3
2022-08-01T06:59:20.194Z,3
2022-08-01T07:00:28.902Z,2.7
2022-08-01T07:01:37.271Z,2.7
2022-08-01T07:02:45.686Z,2.7
2022-08-01T07:03:55.079Z,2.5
2022-08-01T07:05:03.771Z,2.5
2022-08-01T07:06:11.034Z,2.5
2022-08-01T07:07:19.644Z,2.4
2022-08-01T07:08:28.049Z,2.4
2022-08-01T07:09:36.423Z,2.4
2022-08-01T07:10:45.007Z,2.4
2022-08-01T07:11:53.404Z,2.4
2022-08-01T07:13:01.792Z,2.4
2022-08-01T07:14:10.425Z,2.5
2022-08-01T07:15:18.805Z,2.5
2022-08-01T07:16:27.169Z,2.5
2022-08-01T07:17:35.768Z,2.9
2022-08-01T07:18:44.142Z,2.9
2022-08-01T07:19:52.538Z,2.9
2022-08-01T07:21:01.133Z,3.4
2022-08-01T07:22:09.565Z,3.4
2022-08-01T07:23:17.889Z,3.4
2022-08-01T07:24:26.855Z,3.3
2022-08-01T07:25:35.997Z,3.3
2022-08-01T07:26:52.793Z,3.3
2022-08-01T07:27:52.989Z,3.3
2022-08-01T07:29:01.352Z,3.3
2022-08-01T07:30:09.715Z,3.3
2022-08-01T07:31:18.305Z,3.7
2022-08-01T07:32:26.703Z,3.7
2022-08-01T07:33:47.821Z,3.7
2022-08-01T07:34:44.839Z,2.8
2022-08-01T07:35:53.214Z,2.8
2022-08-01T07:37:01.660Z,2.8
2022-08-01T07:38:12.737Z,2.8
2022-08-01T07:39:18.600Z,2.8
2022-08-01T07:40:28.010Z,2.8
2022-08-01T07:41:45.399Z,3
2022-08-01T07:42:45.035Z,3
2022-08-01T07:43:57.968Z,3
2022-08-01T07:45:02.014Z,3.2
2022-08-01T07:46:10.377Z,3.2
2022-08-01T07:47:18.762Z,3.2
2022-08-01T07:48:27.377Z,3.2
2022-08-01T07:49:39.829Z,3.2
2022-08-01T07:50:44.098Z,3.2
2022-08-01T07:52:02.283Z,2.9
2022-08-01T07:53:01.065Z,2.9
2022-08-01T07:54:09.446Z,2.9
2022-08-01T07:55:18.025Z,2.8
2022-08-01T07:56:26.394Z,2.8
2022-08-01T07:57:34.781Z,2.8
2022-08-01T07:58:43.352Z,3
2022-08-01T07:59:51.727Z,3
2022-08-01T08:01:00.128Z,3
2022-08-01T08:02:08.971Z,3
2022-08-01T08:03:17.084Z,3
2022-08-01T08:04:25.456Z,3
2022-08-01T08:05:51.493Z,2.8
2022-08-01T08:06:42.397Z,2.8
2022-08-01T08:07:50.800Z,2.8
2022-08-01T08:08:59.344Z,2.7
2022-08-01T08:10:07.711Z,2.7
2022-08-01T08:11:16.073Z,2.7
2022-08-01T08:12:28.563Z,2.6
2022-08-01T08:13:33.049Z,2.6
2022-08-01T08:14:41.425Z,2.6
2022-08-01T08:15:50.073Z,3
2022-08-01T08:16:58.474Z,3
2022-08-01T08:18:06.881Z,3
2022-08-01T08:19:15.492Z,2.8
2022-08-01T08:20:23.870Z,2.8
2022-08-01T08:21:32.239Z,2.8
2022-08-01T08:22:40.827Z,2.3
2022-08-01T08:23:49.217Z,2.3
2022-08-01T08:24:59.927Z,2.3
2022-08-01T08:26:06.184Z,2.4
2022-08-01T08:27:14.598Z,2.4
2022-08-01T08:28:26.485Z,2.4
2022-08-01T08:29:31.615Z,2.8
2022-08-01T08:30:40.002Z,2.8
2022-08-01T08:31:51.078Z,2.8
2022-08-01T08:32:57.037Z,2.8
2022-08-01T08:34:05.420Z,2.8
2022-08-01T08:35:17.258Z,2.8
2022-08-01T08:36:22.422Z,2.8
2022-08-01T08:37:31.395Z,2.8
2022-08-01T08:38:39.196Z,2.8
2022-08-01T08:39:47.812Z,2.4
2022-08-01T08:40:56.183Z,2.4
2022-08-01T08:42:04.848Z,2.4
2022-08-01T08:43:13.177Z,2.4
2022-08-01T08:44:21.538Z,2.4
2022-08-01T08:45:30.989Z,2.4
2022-08-01T08:46:38.508Z,2.5
2022-08-01T08:47:46.921Z,2.5
2022-08-01T08:48:55.340Z,2.5
2022-08-01T08:50:03.889Z,2.2
2022-08-01T08:51:12.258Z,2.2
2022-08-01T08:52:20.667Z,2.2
2022-08-01T08:53:34.671Z,2.8
2022-08-01T08:54:37.638Z,2.8
2022-08-01T08:55:55.914Z,2.8
2022-08-01T08:56:54.600Z,2.4
2022-08-01T08:58:02.970Z,2.4
2022-08-01T08:59:11.343Z,2.4
2022-08-01T09:00:19.972Z,2.6
2022-08-01T09:01:28.320Z,2.6
2022-08-01T09:02:36.712Z,2.6
2022-08-01T09:03:45.294Z,2.4
2022-08-01T09:04:53.668Z,2.4
2022-08-01T09:06:02.045Z,2.4
2022-08-01T09:07:10.636Z,2.4
2022-08-01T09:08:19.021Z,2.4
2022-08-01T09:09:27.396Z,2.4
2022-08-01T09:10:35.965Z,2.8
2022-08-01T09:11:44.351Z,2.8
2022-08-01T09:12:52.727Z,2.8
2022-08-01T09:14:01.320Z,2.6
2022-08-01T09:15:09.726Z,2.6
2022-08-01T09:16:18.106Z,2.6
2022-08-01T09:17:26.720Z,2.4
2022-08-01T09:18:35.158Z,2.4
2022-08-01T09:19:43.469Z,2.4
2022-08-01T09:20:52.072Z,2.9
2022-08-01T09:22:00.467Z,2.9
2022-08-01T09:23:08.821Z,2.9
2022-08-01T09:24:17.396Z,2.8
2022-08-01T09:25:29.519Z,2.8
2022-08-01T09:26:34.179Z,2.8
2022-08-01T09:27:43.998Z,3.3
2022-08-01T09:28:51.112Z,3.3
2022-08-01T09:30:00.523Z,3.3
2022-08-01T09:31:08.051Z,3.2
2022-08-01T09:32:16.657Z,3.2
2022-08-01T09:33:24.776Z,3.2
2022-08-01T09:34:33.368Z,3.3
2022-08-01T09:35:43.545Z,3.3
2022-08-01T09:36:50.109Z,3.3
2022-08-01T09:37:58.694Z,2.9
2022-08-01T09:39:07.051Z,2.9
2022-08-01T09:40:15.431Z,2.9
2022-08-01T09:41:24.021Z,2.5
2022-08-01T09:42:32.403Z,2.5
2022-08-01T09:43:40.759Z,2.5
2022-08-01T09:44:54.716Z,2.6
2022-08-01T09:45:58.025Z,2.6
2022-08-01T09:47:07.537Z,2.6
2022-08-01T09:48:14.649Z,2.4
2022-08-01T09:49:23.075Z,2.4
2022-08-01T09:50:31.411Z,2.4
2022-08-01T09:51:57.919Z,2.3
2022-08-01T09:52:48.385Z,2.3
2022-08-01T09:53:56.776Z,2.3
2022-08-01T09:55:05.343Z,2.2
2022-08-01T09:56:13.730Z,2.2
2022-08-01T09:57:22.104Z,2.2
2022-08-01T09:58:30.677Z,2.6
2022-08-01T09:59:57.011Z,2.6
2022-08-01T10:00:47.400Z,2.6
2022-08-01T10:01:55.978Z,2.1
2022-08-01T10:03:10.169Z,2.1
2022-08-01T10:04:12.712Z,2.1
2022-08-01T10:05:21.500Z,2.3
2022-08-01T10:06:29.703Z,2.3
2022-08-01T10:07:43.378Z,2.3
2022-08-01T10:08:46.636Z,2.2
2022-08-01T10:09:54.999Z,2.2
2022-08-01T10:11:03.377Z,2.2
2022-08-01T10:12:15.031Z,3.2
2022-08-01T10:13:20.339Z,3.2
2022-08-01T10:14:28.760Z,3.2
2022-08-01T10:15:37.946Z,3
2022-08-01T10:16:45.750Z,3
2022-08-01T10:17:54.484Z,3
2022-08-01T10:19:02.708Z,2.6
2022-08-01T10:20:30.778Z,2.6
2022-08-01T10:21:40.752Z,2.6
2022-08-01T10:22:28.063Z,2.7
2022-08-01T10:23:39.619Z,2.7
2022-08-01T10:24:44.800Z,2.7
2022-08-01T10:25:56.052Z,2.7
2022-08-01T10:27:05.678Z,2.7
2022-08-01T10:28:10.139Z,2.7
2022-08-01T10:29:24.399Z,1.5
2022-08-01T10:30:27.099Z,1.5
2022-08-01T10:31:35.483Z,1.5
2022-08-01T10:32:44.077Z,2
2022-08-01T10:33:53.266Z,2
2022-08-01T10:35:06.165Z,2
2022-08-01T10:36:09.416Z,1.4
2022-08-01T10:37:17.775Z,1.4
2022-08-01T10:38:26.140Z,1.4
2022-08-01T10:39:34.711Z,1.6
2022-08-01T10:40:43.141Z,1.6
2022-08-01T10:41:51.467Z,1.6
2022-08-01T10:43:00.044Z,1.7
2022-08-01T10:44:08.415Z,1.7
2022-08-01T10:45:16.800Z,1.7
2022-08-01T10:46:25.384Z,1.4
2022-08-01T10:47:49.818Z,1.4
2022-08-01T10:48:42.111Z,1.4
2022-08-01T10:49:50.698Z,1.5
2022-08-01T10:50:59.079Z,1.5
2022-08-01T10:52:07.448Z,1.5
2022-08-01T10:53:23.525Z,1.6
2022-08-01T10:54:25.123Z,1.6
2022-08-01T10:55:32.762Z,1.6
2022-08-01T10:56:41.366Z,1.3
2022-08-01T10:57:52.494Z,1.3
2022-08-01T10:58:58.096Z,1.3
2022-08-01T11:00:06.682Z,1.5
2022-08-01T11:01:15.146Z,1.5
2022-08-01T11:02:23.441Z,1.5
2022-08-01T11:03:54.762Z,1.6
2022-08-01T11:04:40.416Z,1.6
2022-08-01T11:05:49.669Z,1.6
2022-08-01T11:06:57.334Z,1.6
2022-08-01T11:08:05.727Z,1.6
2022-08-01T11:09:16.349Z,1.6
2022-08-01T11:10:23.712Z,1.6
2022-08-01T11:11:37.347Z,1.6
2022-08-01T11:12:39.401Z,1.6
2022-08-01T11:13:47.981Z,1.5
2022-08-01T11:14:56.416Z,1.5
2022-08-01T11:16:05.782Z,1.5
2022-08-01T11:17:13.336Z,1.4
2022-08-01T11:18:21.709Z,1.4
2022-08-01T11:19:30.068Z,1.4
2022-08-01T11:20:42.248Z,1.9
2022-08-01T11:21:56.565Z,1.9
2022-08-01T11:22:55.415Z,1.9
2022-08-01T11:24:03.985Z,1.5
2022-08-01T11:25:12.369Z,1.5
2022-08-01T11:26:28.649Z,1.5
2022-08-01T11:27:29.311Z,1.8
2022-08-01T11:28:40.548Z,1.8
2022-08-01T11:29:46.062Z,1.8
2022-08-01T11:30:54.634Z,1.7
2022-08-01T11:32:03.011Z,1.7
2022-08-01T11:33:12.052Z,1.7
2022-08-01T11:34:19.970Z,1.4
2022-08-01T11:35:28.345Z,1.4
2022-08-01T11:36:57.957Z,1.4
2022-08-01T11:37:45.272Z,1.7
2022-08-01T11:38:53.653Z,1.7
2022-08-01T11:40:02.027Z,1.7
2022-08-01T11:41:10.611Z,1.6
2022-08-01T11:42:18.985Z,1.6
2022-08-01T11:43:27.339Z,1.6
2022-08-01T11:44:35.941Z,1.8
2022-08-01T11:45:44.302Z,1.8
2022-08-01T11:46:52.672Z,1.8
2022-08-01T11:48:01.268Z,1.8
2022-08-01T11:49:09.718Z,1.8
2022-08-01T11:50:18.022Z,1.8
2022-08-01T11:51:29.486Z,1.6
2022-08-01T11:52:37.843Z,1.6
2022-08-01T11:53:47.475Z,1.6
2022-08-01T11:54:56.096Z,1.6
2022-08-01T11:56:04.508Z,1.6
2022-08-01T11:57:12.862Z,1.6
2022-08-01T11:58:22.072Z,1.6
2022-08-01T11:59:33.958Z,1.6
2022-08-01T12:00:38.178Z,1.6
2022-08-01T12:01:46.760Z,1.4
2022-08-01T12:02:55.171Z,1.4
2022-08-01T12:04:03.502Z,1.4
2022-08-01T12:05:12.338Z,1.4
2022-08-01T12:06:20.465Z,1.4
2022-08-01T12:07:28.820Z,1.4
2022-08-01T12:08:37.410Z,1.2
2022-08-01T12:09:45.797Z,1.2
2022-08-01T12:11:02.206Z,1.2
2022-08-01T12:12:02.721Z,1.4
2022-08-01T12:13:11.108Z,1.4
2022-08-01T12:14:19.477Z,1.4
2022-08-01T12:15:28.062Z,1.7
2022-08-01T12:16:36.427Z,1.7
2022-08-01T12:17:45.805Z,1.7
2022-08-01T12:18:53.382Z,1.4
2022-08-01T12:20:01.762Z,1.4
2022-08-01T12:21:10.122Z,1.4
2022-08-01T12:22:18.702Z,1.1
2022-08-01T12:23:27.088Z,1.1
2022-08-01T12:24:35.461Z,1.1
2022-08-01T12:25:44.025Z,1.4
2022-08-01T12:26:52.398Z,1.4
2022-08-01T12:28:00.779Z,1.4
2022-08-01T12:29:09.374Z,1.3
2022-08-01T12:30:17.736Z,1.3
2022-08-01T12:31:26.106Z,1.3
2022-08-01T12:32:35.823Z,1.4
2022-08-01T12:33:43.077Z,1.4
2022-08-01T12:34:51.449Z,1.4
2022-08-01T12:36:00.021Z,1.3
2022-08-01T12:37:08.763Z,1.3
2022-08-01T12:38:16.786Z,1.3
2022-08-01T12:39:25.362Z,1.2
2022-08-01T12:40:33.758Z,1.2
2022-08-01T12:41:42.126Z,1.2
2022-08-01T12:42:50.728Z,1.3
2022-08-01T12:43:59.113Z,1.3
2022-08-01T12:45:07.507Z,1.3
2022-08-01T12:46:16.073Z,1.1
2022-08-01T12:47:24.457Z,1.1
2022-08-01T12:48:32.853Z,1.1
2022-08-01T12:49:41.461Z,1.2
2022-08-01T12:50:49.826Z,1.2
2022-08-01T12:51:58.209Z,1.2
2022-08-01T12:53:07.047Z,1.2
2022-08-01T12:54:15.172Z,1.2
2022-08-01T12:55:23.544Z,1.2
2022-08-01T12:56:32.109Z,1.1
2022-08-01T12:57:40.479Z,1.1
2022-08-01T12:58:48.855Z,1.1
2022-08-01T12:59:57.415Z,1.3
2022-08-01T13:01:05.878Z,1.3
2022-08-01T13:02:14.162Z,1.3
2022-08-01T13:03:22.825Z,1.2
2022-08-01T13:04:31.243Z,1.2
2022-08-01T13:05:39.589Z,1.2
2022-08-01T13:06:48.165Z,1.4
2022-08-01T13:07:56.530Z,1.4
2022-08-01T13:09:04.936Z,1.4
2022-08-01T13:10:13.586Z,1.3
2022-08-01T13:11:22.024Z,1.3
2022-08-01T13:12:30.488Z,1.3
2022-08-01T13:13:39.133Z,1.3
2022-08-01T13:14:47.589Z,1.3
2022-08-01T13:15:56.095Z,1.3
2022-08-01T13:17:04.973Z,1.2
2022-08-01T13:18:13.560Z,1.2
2022-08-01T13:19:22.160Z,1.2
2022-08-01T13:20:30.902Z,1.4
2022-08-01T13:21:52.368Z,1.4
2022-08-01T13:22:48.203Z,1.4
2022-08-01T13:24:02.206Z,1.3
2022-08-01T13:25:05.592Z,1.3
2022-08-01T13:26:14.151Z,1.3
2022-08-01T13:27:22.914Z,1.7
2022-08-01T13:28:31.516Z,1.7
2022-08-01T13:29:40.129Z,1.7
2022-08-01T13:30:48.866Z,1.5
2022-08-01T13:31:57.448Z,1.5
2022-08-01T13:33:05.962Z,1.5
2022-08-01T13:34:14.742Z,3.5
2022-08-01T13:35:23.347Z,3.5
2022-08-01T13:36:31.905Z,3.5
2022-08-01T13:37:41.128Z,5.4
2022-08-01T13:38:49.787Z,5.4
2022-08-01T13:39:58.342Z,5.4
2022-08-01T13:41:07.172Z,1.5
2022-08-01T13:42:18.956Z,1.5
2022-08-01T13:43:24.449Z,1.5
2022-08-01T13:44:33.210Z,1.2
2022-08-01T13:45:41.797Z,1.2
2022-08-01T13:46:51.405Z,1.2
2022-08-01T13:48:04.335Z,1.5
2022-08-01T13:49:15.208Z,1.5
2022-08-01T13:50:16.553Z,1.5
2022-08-01T13:51:25.402Z,1.5
2022-08-01T13:52:33.944Z,1.5
2022-08-01T13:53:42.586Z,1.5
2022-08-01T13:54:51.343Z,2
2022-08-01T13:55:59.966Z,2
2022-08-01T13:57:08.601Z,2
2022-08-01T13:58:17.468Z,1.3
2022-08-01T13:59:26.074Z,1.3
2022-08-01T14:00:34.675Z,1.3
2022-08-01T14:01:43.489Z,1.6
2022-08-01T14:02:52.120Z,1.6
2022-08-01T14:04:00.765Z,1.6
2022-08-01T14:05:09.538Z,1.4
2022-08-01T14:06:18.134Z,1.4
2022-08-01T14:07:26.834Z,1.4
2022-08-01T14:08:35.516Z,1.2
2022-08-01T14:09:44.862Z,1.2
2022-08-01T14:10:52.799Z,1.2
2022-08-01T14:12:01.529Z,1.1
2022-08-01T14:13:11.653Z,1.1
2022-08-01T14:14:18.612Z,1.1
2022-08-01T14:15:38.747Z,1.3
2022-08-01T14:16:35.820Z,1.3
2022-08-01T14:17:47.758Z,1.3
2022-08-01T14:18:53.229Z,1.4
2022-08-01T14:20:01.863Z,1.4
2022-08-01T14:21:10.407Z,1.4
2022-08-01T14:22:19.231Z,1.1
2022-08-01T14:23:27.808Z,1.1
2022-08-01T14:24:36.355Z,1.1
2022-08-01T14:25:57.857Z,1.3
2022-08-01T14:26:53.760Z,1.3
2022-08-01T14:28:02.381Z,1.3
2022-08-01T15:04:06.064Z,0
2022-08-01T15:05:14.500Z,0
2022-08-01T15:06:22.928Z,0
2022-08-01T15:07:31.591Z,1
2022-08-01T15:08:39.966Z,1
2022-08-01T15:09:48.393Z,1
2022-08-01T15:10:56.961Z,1.1
2022-08-01T15:12:05.491Z,1.1
2022-08-01T15:13:13.719Z,1.1
2022-08-01T15:14:22.285Z,0.9
2022-08-01T15:15:30.654Z,0.9
2022-08-01T15:16:39.022Z,0.9
2022-08-01T15:17:47.601Z,1.2
2022-08-01T15:18:55.969Z,1.2
2022-08-01T15:20:04.329Z,1.2
2022-08-01T15:21:24.830Z,1.3
2022-08-01T15:22:21.298Z,1.3
2022-08-01T15:23:29.656Z,1.3
2022-08-01T15:24:38.243Z,1.1
2022-08-01T15:25:46.638Z,1.1
2022-08-01T15:26:55.016Z,1.1
2022-08-01T15:28:03.594Z,1.2
2022-08-01T15:29:11.974Z,1.2
2022-08-01T15:30:21.541Z,1.2
2022-08-01T15:31:28.918Z,1.4
2022-08-01T15:32:37.310Z,1.4
2022-08-01T15:33:45.668Z,1.4
2022-08-01T15:34:54.239Z,1.1
2022-08-01T15:36:02.618Z,1.1
2022-08-01T15:37:11.016Z,1.1
2022-08-01T15:38:19.648Z,1.2
2022-08-01T15:39:28.013Z,1.2
2022-08-01T15:40:36.374Z,1.2
2022-08-01T15:41:44.970Z,1.3
2022-08-01T15:42:53.337Z,1.3
2022-08-01T15:44:01.688Z,1.3
2022-08-01T15:45:16.726Z,1
2022-08-01T15:46:18.635Z,1
2022-08-01T15:47:27.002Z,1
2022-08-01T15:48:39.622Z,1.3
2022-08-01T15:49:43.934Z,1.3
2022-08-01T15:50:52.310Z,1.3
2022-08-01T15:52:00.895Z,1.2
2022-08-01T15:53:09.255Z,1.2
2022-08-01T15:54:17.627Z,1.2
2022-08-01T15:55:26.214Z,1.2
2022-08-01T15:56:34.599Z,1.2
2022-08-01T15:57:42.993Z,1.2
2022-08-01T15:58:51.568Z,1.3
2022-08-01T15:59:59.931Z,1.3
2022-08-01T16:01:08.299Z,1.3
2022-08-01T16:02:16.944Z,1.5
2022-08-01T16:03:25.259Z,1.5
2022-08-01T16:04:33.653Z,1.5
2022-08-01T16:05:44.031Z,1.5
2022-08-01T16:06:50.608Z,1.5
2022-08-01T16:08:00.010Z,1.5
2022-08-01T16:09:07.567Z,1.5
2022-08-01T16:10:15.923Z,1.5
2022-08-01T16:11:24.313Z,1.5
2022-08-01T16:12:32.910Z,1.5
2022-08-01T16:13:41.280Z,1.5
2022-08-01T16:14:49.677Z,1.5
2022-08-01T16:15:58.271Z,1.4
2022-08-01T16:17:06.658Z,1.4
2022-08-01T16:18:15.030Z,1.4
2022-08-01T16:19:23.618Z,1.5
2022-08-01T16:20:32.023Z,1.5
2022-08-01T16:21:42.067Z,1.5
2022-08-01T16:22:49.002Z,1.4
2022-08-01T16:23:57.413Z,1.4
2022-08-01T16:25:05.798Z,1.4
2022-08-01T16:26:15.573Z,1.4
2022-08-01T16:27:26.909Z,1.4
2022-08-01T16:28:31.106Z,1.4
2022-08-01T16:29:39.712Z,1.6
2022-08-01T16:30:50.244Z,1.6
2022-08-01T16:31:57.071Z,1.6
2022-08-01T16:33:07.675Z,1.6
2022-08-01T16:34:13.886Z,1.6
2022-08-01T16:35:21.858Z,1.6
2022-08-01T16:36:30.448Z,1.4
2022-08-01T16:37:38.828Z,1.4
2022-08-01T16:38:47.222Z,1.4
2022-08-01T16:39:56.290Z,1.5
2022-08-01T16:41:04.197Z,1.5
2022-08-01T16:42:12.954Z,1.5
2022-08-01T16:43:21.194Z,1.5
2022-08-01T16:44:34.052Z,1.5
2022-08-01T16:45:42.170Z,1.5
2022-08-01T16:46:46.574Z,1.4
2022-08-01T16:47:55.024Z,1.4
2022-08-01T16:49:03.476Z,1.4
2022-08-01T16:50:12.048Z,1.6
2022-08-01T16:51:20.420Z,1.6
2022-08-01T16:52:28.981Z,1.6
2022-08-01T16:53:37.402Z,1.7
2022-08-01T16:54:45.805Z,1.7
2022-08-01T16:55:54.217Z,1.7
2022-08-01T16:57:07.739Z,1.7
2022-08-01T16:58:11.989Z,1.7
2022-08-01T16:59:19.621Z,1.7
2022-08-01T17:00:28.181Z,1.8
2022-08-01T17:01:58.225Z,1.8
2022-08-01T17:02:44.948Z,1.8
2022-08-01T17:03:55.790Z,1.6
2022-08-01T17:05:06.974Z,1.6
2022-08-01T17:06:10.266Z,1.6
2022-08-01T17:07:18.852Z,1.6
2022-08-01T17:08:27.215Z,1.6
2022-08-01T17:09:39.852Z,1.6
2022-08-01T17:10:44.692Z,1.1
2022-08-01T17:11:53.080Z,1.1
2022-08-01T17:13:01.459Z,1.1
2022-08-01T17:14:10.046Z,1
2022-08-01T17:15:18.401Z,1
2022-08-01T17:16:26.773Z,1
2022-08-01T17:17:35.355Z,0.8
2022-08-01T17:18:43.704Z,0.8
2022-08-01T17:19:52.085Z,0.8
2022-08-01T17:21:00.661Z,0.9
2022-08-01T17:22:09.033Z,0.9
2022-08-01T17:23:17.422Z,0.9
2022-08-01T17:24:25.986Z,1
2022-08-01T17:25:34.359Z,1
2022-08-01T17:26:42.748Z,1
2022-08-01T17:27:51.339Z,0.8
2022-08-01T17:28:59.734Z,0.8
2022-08-01T17:30:08.073Z,0.8
2022-08-01T17:31:16.661Z,0.8
2022-08-01T17:32:25.045Z,0.8
2022-08-01T17:33:44.312Z,0.8
2022-08-01T17:34:41.997Z,0.9
2022-08-01T17:35:50.374Z,0.9
2022-08-01T17:36:58.766Z,0.9
2022-08-01T17:38:07.344Z,1
2022-08-01T17:39:15.724Z,1
2022-08-01T17:40:39.409Z,1
2022-08-01T17:41:32.686Z,1
2022-08-01T17:42:41.436Z,1
2022-08-01T17:43:49.817Z,1
2022-08-01T17:44:58.399Z,1.2
2022-08-01T17:46:06.764Z,1.2
2022-08-01T17:47:28.967Z,1.2
2022-08-01T17:48:23.750Z,1.1
2022-08-01T17:49:53.679Z,1.1
2022-08-01T17:50:40.504Z,1.1
2022-08-01T17:51:49.107Z,1
2022-08-01T17:52:57.491Z,1
2022-08-01T17:54:05.880Z,1
2022-08-01T17:55:53.183Z,0.6
2022-08-01T17:56:22.889Z,0.6
2022-08-01T17:57:31.277Z,0.6
2022-08-01T17:58:50.440Z,1
2022-08-01T17:59:48.326Z,1
2022-08-01T18:00:56.701Z,1
2022-08-01T18:02:05.433Z,0.7
2022-08-01T18:03:13.651Z,0.7
2022-08-01T18:04:22.023Z,0.7
2022-08-01T18:05:36.666Z,0.7
2022-08-01T18:06:39.018Z,0.7
2022-08-01T18:08:00.828Z,0.7
2022-08-01T18:08:56.176Z,0.7
2022-08-01T18:10:04.302Z,0.7
2022-08-01T18:11:12.674Z,0.7
2022-08-01T18:12:21.255Z,0.7
2022-08-01T18:13:29.871Z,0.7
2022-08-01T18:14:40.419Z,0.7
2022-08-01T18:15:46.583Z,0.6
2022-08-01T18:16:54.958Z,0.6
2022-08-01T18:18:03.318Z,0.6
2022-08-01T18:19:11.908Z,0.7
2022-08-01T18:20:20.273Z,0.7
2022-08-01T18:21:28.649Z,0.7
2022-08-01T18:22:37.223Z,0.7
2022-08-01T18:23:51.529Z,0.7
2022-08-01T18:24:53.957Z,0.7
2022-08-01T18:26:02.633Z,0.7
2022-08-01T18:27:10.908Z,0.7
2022-08-01T18:28:23.562Z,0.7
2022-08-01T18:29:46.712Z,0.7
2022-08-01T18:30:36.215Z,0.7
2022-08-01T18:31:44.595Z,0.7
2022-08-01T18:32:53.158Z,0.9
2022-08-01T18:34:01.532Z,0.9
2022-08-01T18:35:10.908Z,0.9
2022-08-01T18:36:31.480Z,0.7
2022-08-01T18:37:26.856Z,0.7
2022-08-01T18:38:35.307Z,0.7
2022-08-01T18:39:43.916Z,0.7
2022-08-01T18:40:52.172Z,0.7
2022-08-01T18:42:00.543Z,0.7
2022-08-01T18:43:09.104Z,0.5
2022-08-01T18:44:17.470Z,0.5
2022-08-01T18:45:25.854Z,0.5
2022-08-01T18:46:34.422Z,0.8
2022-08-01T18:47:42.790Z,0.8
2022-08-01T18:48:51.231Z,0.8
2022-08-01T18:49:59.740Z,0.8
2022-08-01T18:51:08.541Z,0.8
2022-08-01T18:52:16.504Z,0.8
2022-08-01T18:53:25.066Z,0.9
2022-08-01T18:54:33.437Z,0.9
2022-08-01T18:55:41.822Z,0.9
2022-08-01T18:56:50.381Z,1.1
2022-08-01T18:57:58.757Z,1.1
2022-08-01T18:59:07.139Z,1.1
2022-08-01T19:00:15.728Z,0.8
2022-08-01T19:01:24.122Z,0.8
2022-08-01T19:02:32.457Z,0.8
2022-08-01T19:03:42.843Z,1.2
2022-08-01T19:04:49.378Z,1.2
2022-08-01T19:05:57.760Z,1.2
2022-08-01T19:07:06.502Z,1
2022-08-01T19:08:14.674Z,1
2022-08-01T19:09:23.047Z,1
2022-08-01T19:10:31.625Z,1.1
2022-08-01T19:11:39.990Z,1.1
2022-08-01T19:12:48.348Z,1.1
2022-08-01T19:13:56.931Z,1.1
2022-08-01T19:15:05.309Z,1.1
2022-08-01T19:16:13.686Z,1.1
2022-08-01T19:17:22.247Z,0.9
2022-08-01T19:18:30.621Z,0.9
2022-08-01T19:19:38.998Z,0.9
2022-08-01T19:20:47.578Z,1.3
2022-08-01T19:21:55.951Z,1.3
2022-08-01T19:23:04.304Z,1.3
2022-08-01T19:24:12.890Z,1.3
2022-08-01T19:25:21.264Z,1.3
2022-08-01T19:26:29.647Z,1.3
2022-08-01T19:27:38.207Z,1.5
2022-08-01T19:28:46.584Z,1.5
2022-08-01T19:29:54.950Z,1.5
2022-08-01T19:31:03.549Z,1.7
2022-08-01T19:32:11.927Z,1.7
2022-08-01T19:33:20.286Z,1.7
2022-08-01T19:34:28.867Z,1.1
2022-08-01T19:35:37.258Z,1.1
2022-08-01T19:36:45.629Z,1.1
2022-08-01T19:37:54.343Z,1.3
2022-08-01T19:39:02.572Z,1.3
2022-08-01T19:40:10.950Z,1.3
2022-08-01T19:41:19.526Z,1
2022-08-01T19:42:27.922Z,1
2022-08-01T19:43:39.754Z,1
2022-08-01T19:44:44.841Z,1.1
2022-08-01T19:45:53.223Z,1.1
2022-08-01T19:47:01.656Z,1.1
2022-08-01T19:48:10.272Z,1.1
2022-08-01T19:49:18.693Z,1.1
2022-08-01T19:50:27.006Z,1.1
2022-08-01T19:51:35.572Z,1
2022-08-01T19:52:43.930Z,1
2022-08-01T19:53:55.123Z,1
2022-08-01T19:55:00.879Z,1
2022-08-01T19:56:09.253Z,1
2022-08-01T19:57:17.615Z,1
2022-08-01T19:58:27.636Z,1.2
2022-08-01T19:59:34.538Z,1.2
2022-08-01T20:00:42.936Z,1.2
2022-08-01T20:01:51.491Z,1.2
2022-08-01T20:02:59.914Z,1.2
2022-08-01T20:04:08.223Z,1.2
2022-08-01T20:05:16.827Z,1.2
2022-08-01T20:06:26.160Z,1.2
2022-08-01T20:07:33.553Z,1.2
2022-08-01T20:08:42.148Z,1.3
2022-08-01T20:09:50.514Z,1.3
2022-08-01T20:11:01.926Z,1.3
2022-08-01T20:12:07.476Z,1.4
2022-08-01T20:13:15.825Z,1.4
2022-08-01T20:14:24.205Z,1.4
2022-08-01T20:15:32.797Z,1.4
2022-08-01T20:16:41.150Z,1.4
2022-08-01T20:17:49.514Z,1.4
2022-08-01T20:18:58.104Z,1.3
2022-08-01T20:20:07.683Z,1.3
2022-08-01T20:21:16.047Z,1.3
2022-08-01T20:22:24.631Z,1.4
2022-08-01T20:23:32.999Z,1.4
2022-08-01T20:24:41.948Z,1.4
2022-08-01T20:25:49.952Z,1.3
2022-08-01T20:26:58.316Z,1.3
2022-08-01T20:28:06.669Z,1.3
2022-08-01T20:29:15.254Z,1.3
2022-08-01T20:30:23.641Z,1.3
2022-08-01T20:31:38.488Z,1.3
2022-08-01T20:32:40.590Z,1.5
2022-08-01T20:33:48.941Z,1.5
2022-08-01T20:34:57.315Z,1.5
2022-08-01T20:36:05.890Z,1.5
2022-08-01T20:37:14.529Z,1.5
2022-08-01T20:38:22.890Z,1.5
2022-08-01T20:39:31.204Z,1.2
2022-08-01T20:40:39.586Z,1.2
2022-08-01T20:41:47.942Z,1.2
2022-08-01T20:42:56.524Z,1.5
2022-08-01T20:44:04.892Z,1.5
2022-08-01T20:45:18.160Z,1.5
2022-08-01T20:46:21.839Z,1.7
2022-08-01T20:47:30.229Z,1.7
2022-08-01T20:48:38.583Z,1.7
2022-08-01T20:49:47.192Z,1.6
2022-08-01T20:50:55.546Z,1.6
2022-08-01T20:52:11.448Z,1.6
2022-08-01T20:53:12.480Z,1.5
2022-08-01T20:54:20.871Z,1.5
2022-08-01T20:55:29.236Z,1.5
2022-08-01T20:56:37.811Z,1.5